Time;durP1;ratioP1;P1;durP2;ratioP2;P2;SDS_P1;SDS_P2;PMS_P1;PMS_P2;Temp;Humidity;BMP_temperature;BMP_pressure;BME280_temperature;BME280_humidity;BME280_pressure;Samples;Min_cycle;Max_cycle;Signal;HPM_P1;HPM_P2
2022/08/15 00:01:23;;;;;;;13.73;10.93;;;;;;;;;;5011845;28;20400;-65
2022/08/15 00:03:54;;;;;;;13.55;11.32;;;;;;;;;;5000918;28;20042;-64
2022/08/15 00:06:25;;;;;;;13.10;10.93;;;;;;;;;;4993174;28;20044;-64
2022/08/15 00:08:54;;;;;;;18.88;11.63;;;;;;;;;;4983693;28;20491;-64
2022/08/15 00:11:26;;;;;;;11.82;10.20;;;;;;;;;;5015452;28;20101;-64
2022/08/15 00:13:56;;;;;;;12.60;10.80;;;;;;;;;;5008593;28;20042;-64
2022/08/15 00:16:22;;;;;;;12.60;10.27;;;;;;;;;;5001717;28;20041;-64
2022/08/15 00:18:49;;;;;;;13.13;11.73;;;;;;;;;;5010289;28;20045;-65
2022/08/15 00:21:17;;;;;;;13.35;10.40;;;;;;;;;;5020996;28;20120;-65
2022/08/15 00:23:43;;;;;;;14.63;10.23;;;;;;;;;;5022370;28;20041;-65
2022/08/15 00:26:10;;;;;;;15.07;10.38;;;;;;;;;;5016002;28;20044;-65
2022/08/15 00:28:36;;;;;;;12.40;10.25;;;;;;;;;;5011163;28;20544;-64
2022/08/15 00:31:04;;;;;;;13.43;10.35;;;;;;;;;;5021065;28;20502;-64
2022/08/15 00:33:30;;;;;;;12.93;9.88;;;;;;;;;;5002683;28;20374;-64
2022/08/15 00:35:56;;;;;;;14.10;10.80;;;;;;;;;;5004219;28;20092;-64
2022/08/15 00:38:23;;;;;;;13.95;10.82;;;;;;;;;;4994464;28;20502;-64
2022/08/15 00:43:37;;;;;;;12.20;10.63;;;;;;;;;;5012794;28;20058;-64
2022/08/15 00:46:09;;;;;;;13.30;11.07;;;;;;;;;;5011690;28;20038;-64
2022/08/15 00:48:41;;;;;;;12.05;9.50;;;;;;;;;;5011450;28;20047;-64
2022/08/15 00:51:14;;;;;;;13.10;9.98;;;;;;;;;;5021364;28;20056;-65
2022/08/15 00:53:41;;;;;;;12.35;10.68;;;;;;;;;;5032762;28;20041;-64
2022/08/15 00:56:09;;;;;;;11.52;10.05;;;;;;;;;;5024389;28;20088;-64
2022/08/15 00:58:35;;;;;;;13.10;9.80;;;;;;;;;;5010606;28;20147;-64
2022/08/15 01:01:02;;;;;;;12.27;10.52;;;;;;;;;;5008150;28;20045;-64
2022/08/15 01:03:30;;;;;;;16.17;10.73;;;;;;;;;;5012798;28;20069;-64
2022/08/15 01:05:58;;;;;;;15.02;11.63;;;;;;;;;;5011559;28;20041;-64
2022/08/15 01:08:26;;;;;;;12.73;10.27;;;;;;;;;;5012542;28;20045;-64
2022/08/15 01:10:52;;;;;;;11.30;9.73;;;;;;;;;;5018156;28;20506;-64
2022/08/15 01:13:18;;;;;;;10.57;9.38;;;;;;;;;;5014246;28;20050;-64
2022/08/15 01:15:44;;;;;;;12.15;8.70;;;;;;;;;;4992750;28;20099;-64
2022/08/15 01:18:12;;;;;;;12.52;9.07;;;;;;;;;;4993514;28;20128;-64
2022/08/15 01:20:38;;;;;;;10.70;8.85;;;;;;;;;;4999351;28;20034;-64
2022/08/15 01:23:29;;;;;;;11.10;8.50;;;;;;;;;;4998736;28;20069;-64
2022/08/15 01:25:57;;;;;;;11.07;8.95;;;;;;;;;;4995370;28;20077;-64
2022/08/15 01:28:28;;;;;;;12.60;9.10;;;;;;;;;;5011265;28;20038;-64
2022/08/15 01:30:56;;;;;;;12.75;9.57;;;;;;;;;;5011313;28;20038;-64
2022/08/15 01:33:23;;;;;;;11.68;9.73;;;;;;;;;;4993477;28;20125;-65
2022/08/15 01:35:51;;;;;;;11.52;10.07;;;;;;;;;;4992233;28;20050;-64
2022/08/15 01:38:28;;;;;;;13.25;10.13;;;;;;;;;;4994779;28;20262;-64
2022/08/15 01:41:08;;;;;;;13.27;10.90;;;;;;;;;;5010342;28;20407;-64
2022/08/15 01:43:37;;;;;;;11.27;9.90;;;;;;;;;;5001910;28;20124;-64
2022/08/15 01:46:05;;;;;;;14.88;10.50;;;;;;;;;;4982129;28;20049;-64
2022/08/15 01:48:34;;;;;;;15.50;11.75;;;;;;;;;;5008141;28;20084;-64
2022/08/15 01:51:02;;;;;;;14.15;11.40;;;;;;;;;;5007287;28;20049;-64
2022/08/15 01:53:31;;;;;;;14.38;11.18;;;;;;;;;;5011206;28;20247;-64
2022/08/15 01:56:16;;;;;;;13.50;11.35;;;;;;;;;;5011944;28;20048;-64
2022/08/15 01:58:43;;;;;;;14.35;11.98;;;;;;;;;;5010852;28;20045;-64
2022/08/15 02:01:33;;;;;;;18.55;12.07;;;;;;;;;;5007243;28;20041;-65
2022/08/15 02:03:59;;;;;;;14.50;10.88;;;;;;;;;;5001495;28;20550;-64
2022/08/15 02:06:27;;;;;;;13.18;11.32;;;;;;;;;;5009689;28;20141;-64
2022/08/15 02:08:53;;;;;;;12.00;10.77;;;;;;;;;;5028559;28;20549;-64
2022/08/15 02:11:24;;;;;;;13.93;10.90;;;;;;;;;;5029181;28;20037;-64
2022/08/15 02:13:54;;;;;;;15.30;11.65;;;;;;;;;;5010405;28;20522;-64
2022/08/15 02:16:21;;;;;;;14.50;11.38;;;;;;;;;;4995474;28;20054;-64
2022/08/15 02:18:47;;;;;;;12.73;11.13;;;;;;;;;;5012618;28;20038;-65
2022/08/15 02:21:13;;;;;;;12.40;11.10;;;;;;;;;;5011246;28;20041;-64
2022/08/15 02:23:40;;;;;;;14.40;10.90;;;;;;;;;;5012504;28;20029;-65
2022/08/15 02:26:07;;;;;;;12.02;10.07;;;;;;;;;;5011371;28;20046;-64
2022/08/15 02:28:33;;;;;;;12.13;10.43;;;;;;;;;;4995736;28;20080;-64
2022/08/15 02:30:59;;;;;;;11.60;10.02;;;;;;;;;;5015995;28;20046;-65
2022/08/15 02:33:27;;;;;;;11.57;10.30;;;;;;;;;;4993165;28;20129;-64
2022/08/15 02:35:53;;;;;;;11.63;10.05;;;;;;;;;;5018233;28;20072;-65
2022/08/15 02:38:20;;;;;;;11.23;9.30;;;;;;;;;;5023167;28;20088;-65
2022/08/15 02:40:47;;;;;;;11.82;9.27;;;;;;;;;;5012178;28;20398;-65
2022/08/15 02:43:15;;;;;;;10.65;9.30;;;;;;;;;;5021350;28;20117;-64
2022/08/15 02:45:47;;;;;;;11.88;8.95;;;;;;;;;;5015651;28;20088;-64
2022/08/15 02:48:13;;;;;;;9.82;8.05;;;;;;;;;;5015024;28;20077;-64
2022/08/15 02:50:40;;;;;;;10.45;8.77;;;;;;;;;;5011696;28;20034;-64
2022/08/15 02:53:10;;;;;;;13.95;10.93;;;;;;;;;;5015025;28;20069;-64
2022/08/15 02:55:36;;;;;;;11.55;9.70;;;;;;;;;;5011139;28;20089;-64
2022/08/15 02:58:03;;;;;;;12.75;9.90;;;;;;;;;;5012499;28;20082;-64
2022/08/15 03:00:29;;;;;;;12.23;9.65;;;;;;;;;;5014767;28;20038;-64
2022/08/15 03:03:00;;;;;;;12.70;10.95;;;;;;;;;;5010735;28;20037;-64
2022/08/15 03:05:28;;;;;;;12.50;10.60;;;;;;;;;;5013588;28;20048;-64
2022/08/15 03:07:55;;;;;;;13.77;10.48;;;;;;;;;;5010433;28;20053;-63
2022/08/15 03:10:21;;;;;;;13.65;10.68;;;;;;;;;;4993445;28;20045;-64
2022/08/15 03:12:50;;;;;;;12.73;10.65;;;;;;;;;;5014118;28;20129;-64
2022/08/15 03:15:16;;;;;;;13.38;10.68;;;;;;;;;;5014821;28;20041;-64
2022/08/15 03:17:44;;;;;;;13.63;11.27;;;;;;;;;;5014482;28;20372;-64
2022/08/15 03:20:11;;;;;;;14.10;10.90;;;;;;;;;;5012628;28;20046;-65
2022/08/15 03:22:41;;;;;;;14.88;11.02;;;;;;;;;;5015423;28;20045;-64
2022/08/15 03:25:08;;;;;;;13.25;10.35;;;;;;;;;;5014744;28;20407;-64
2022/08/15 03:27:34;;;;;;;13.18;10.02;;;;;;;;;;5006679;28;20126;-65
2022/08/15 03:30:00;;;;;;;11.65;10.23;;;;;;;;;;5013697;28;20161;-65
2022/08/15 03:32:26;;;;;;;13.52;10.90;;;;;;;;;;5013533;28;20502;-65
2022/08/15 03:34:52;;;;;;;14.95;11.30;;;;;;;;;;5012746;28;20554;-65
2022/08/15 03:37:18;;;;;;;13.02;10.38;;;;;;;;;;4995316;28;20077;-65
2022/08/15 03:39:44;;;;;;;13.75;11.65;;;;;;;;;;5012848;28;20030;-65
2022/08/15 03:42:10;;;;;;;11.43;10.13;;;;;;;;;;5013592;28;20049;-65
2022/08/15 03:44:37;;;;;;;11.45;10.23;;;;;;;;;;5016755;28;20065;-65
2022/08/15 03:47:03;;;;;;;11.77;10.30;;;;;;;;;;5011830;28;20077;-65
2022/08/15 03:49:29;;;;;;;15.10;11.88;;;;;;;;;;5028613;22;20435;31
2022/08/15 03:51:55;;;;;;;14.00;10.77;;;;;;;;;;4974640;28;20050;-63
2022/08/15 03:54:21;;;;;;;12.57;10.77;;;;;;;;;;4979968;28;20038;-63
2022/08/15 03:56:47;;;;;;;14.23;10.80;;;;;;;;;;4988550;28;20093;-63
2022/08/15 03:59:13;;;;;;;15.45;11.63;;;;;;;;;;4992612;28;20042;-63
2022/08/15 04:01:42;;;;;;;15.32;12.02;;;;;;;;;;4975548;28;20125;-63
2022/08/15 04:04:08;;;;;;;14.13;11.07;;;;;;;;;;4985444;28;20069;-63
2022/08/15 04:06:34;;;;;;;15.77;12.05;;;;;;;;;;4990044;28;20503;-63
2022/08/15 04:09:00;;;;;;;17.20;13.00;;;;;;;;;;5001364;28;20475;-63
2022/08/15 04:11:30;;;;;;;14.80;12.27;;;;;;;;;;5001177;28;20081;-63
2022/08/15 04:13:57;;;;;;;16.75;12.13;;;;;;;;;;4987864;28;20128;-63
2022/08/15 04:16:23;;;;;;;13.52;11.32;;;;;;;;;;4993529;28;20053;-63
2022/08/15 04:18:50;;;;;;;13.68;10.88;;;;;;;;;;4991995;28;20054;-63
2022/08/15 04:21:16;;;;;;;12.65;10.95;;;;;;;;;;4984143;28;20206;-63
2022/08/15 04:23:44;;;;;;;12.07;10.63;;;;;;;;;;4997016;28;20030;-63
2022/08/15 04:26:10;;;;;;;15.60;10.38;;;;;;;;;;4996840;28;20128;-63
2022/08/15 04:28:36;;;;;;;14.77;10.90;;;;;;;;;;4993250;28;20056;-63
2022/08/15 04:31:04;;;;;;;13.27;10.27;;;;;;;;;;4993367;28;20093;-63
2022/08/15 04:33:32;;;;;;;14.90;12.00;;;;;;;;;;4990295;28;20042;-63
2022/08/15 04:36:04;;;;;;;15.52;11.48;;;;;;;;;;4984058;28;20042;-63
2022/08/15 04:38:32;;;;;;;12.13;10.85;;;;;;;;;;4974829;28;20050;-63
2022/08/15 04:40:58;;;;;;;14.52;11.50;;;;;;;;;;5001262;28;20046;-63
2022/08/15 04:43:24;;;;;;;15.30;12.10;;;;;;;;;;4998377;28;20042;-64
2022/08/15 04:45:51;;;;;;;15.65;11.98;;;;;;;;;;4958142;28;20069;-63
2022/08/15 04:48:17;;;;;;;16.08;11.82;;;;;;;;;;4991573;28;20046;-63
2022/08/15 04:50:44;;;;;;;14.10;11.07;;;;;;;;;;5001304;28;20046;-63
2022/08/15 04:53:11;;;;;;;16.80;12.20;;;;;;;;;;4990046;28;20583;-60
2022/08/15 04:55:41;;;;;;;14.15;11.13;;;;;;;;;;4994184;28;20038;-60
2022/08/15 04:58:08;;;;;;;13.38;11.25;;;;;;;;;;4994731;28;20038;-60
2022/08/15 05:00:36;;;;;;;14.07;10.63;;;;;;;;;;4992146;28;20532;-60
2022/08/15 05:03:14;;;;;;;14.63;12.13;;;;;;;;;;4980439;28;20045;-62
2022/08/15 05:05:42;;;;;;;14.63;11.32;;;;;;;;;;4984463;28;20499;-62
2022/08/15 05:08:09;;;;;;;14.48;11.73;;;;;;;;;;4982049;28;20397;-61
2022/08/15 05:10:35;;;;;;;14.25;11.68;;;;;;;;;;4992128;28;20469;-62
2022/08/15 05:13:15;;;;;;;14.57;11.10;;;;;;;;;;4983743;28;20129;-62
2022/08/15 05:15:42;;;;;;;16.85;11.38;;;;;;;;;;4978711;28;20411;-62
2022/08/15 05:18:08;;;;;;;13.73;11.23;;;;;;;;;;4972971;28;20093;-62
2022/08/15 05:20:34;;;;;;;15.75;11.43;;;;;;;;;;4999991;28;20058;-62
2022/08/15 05:23:04;;;;;;;15.80;11.80;;;;;;;;;;4992125;28;20049;-61
2022/08/15 05:25:31;;;;;;;13.10;11.18;;;;;;;;;;4991481;28;20042;-61
2022/08/15 05:27:57;;;;;;;16.05;11.25;;;;;;;;;;4991164;28;20042;-62
2022/08/15 05:30:23;;;;;;;15.13;11.63;;;;;;;;;;5007188;28;20461;-62
2022/08/15 05:33:10;;;;;;;15.02;11.27;;;;;;;;;;5012036;28;20045;-62
2022/08/15 05:35:41;;;;;;;13.82;10.55;;;;;;;;;;4997017;28;20096;-62
2022/08/15 05:38:07;;;;;;;12.80;11.30;;;;;;;;;;4976078;28;20104;-62
2022/08/15 05:40:40;;;;;;;17.67;11.77;;;;;;;;;;4997315;28;20117;-62
2022/08/15 05:43:11;;;;;;;15.27;11.57;;;;;;;;;;4991569;28;20038;-62
2022/08/15 05:45:46;;;;;;;15.50;11.27;;;;;;;;;;4997345;28;20050;-62
2022/08/15 05:48:14;;;;;;;14.93;11.60;;;;;;;;;;4978565;28;20042;-62
2022/08/15 05:50:48;;;;;;;13.77;11.65;;;;;;;;;;5005287;28;20403;-62
2022/08/15 05:53:29;;;;;;;15.13;11.70;;;;;;;;;;4991155;28;20042;-62
2022/08/15 05:56:06;;;;;;;19.05;12.95;;;;;;;;;;4987499;28;20038;-62
2022/08/15 05:58:41;;;;;;;14.77;11.43;;;;;;;;;;4994242;28;20395;-62
2022/08/15 06:01:20;;;;;;;13.15;11.32;;;;;;;;;;4998362;28;20034;-62
2022/08/15 06:03:51;;;;;;;14.68;11.73;;;;;;;;;;4997439;28;20038;-62
2022/08/15 06:06:16;;;;;;;;;;;;;;;;;;4990599;28;20129;-62
2022/08/15 06:08:46;;;;;;;19.15;12.20;;;;;;;;;;4990172;28;20012;-62
2022/08/15 06:11:38;;;;;;;15.68;12.50;;;;;;;;;;4993742;28;20046;-62
2022/08/15 06:14:24;;;;;;;14.32;12.23;;;;;;;;;;4982350;28;20122;-62
2022/08/15 06:16:52;;;;;;;14.60;12.00;;;;;;;;;;4981953;28;20050;-62
2022/08/15 06:19:25;;;;;;;13.45;11.98;;;;;;;;;;4995636;28;20579;-62
2022/08/15 06:21:55;;;;;;;16.45;12.50;;;;;;;;;;4998387;28;20522;-62
2022/08/15 06:24:32;;;;;;;15.40;11.63;;;;;;;;;;4981324;28;20045;-62
2022/08/15 06:27:11;;;;;;;15.25;11.43;;;;;;;;;;4994348;28;20395;-63
2022/08/15 06:29:49;;;;;;;15.38;12.25;;;;;;;;;;5000280;28;20069;-63
2022/08/15 06:32:42;;;;;;;17.10;12.52;;;;;;;;;;4992948;28;20038;-62
2022/08/15 06:35:14;;;;;;;17.80;12.10;;;;;;;;;;4998401;28;20113;-62
2022/08/15 06:37:52;;;;;;;16.10;12.57;;;;;;;;;;4987719;28;20042;-62
2022/08/15 06:40:21;;;;;;;16.92;13.07;;;;;;;;;;4995622;28;20042;-62
2022/08/15 06:42:47;;;;;;;16.30;12.65;;;;;;;;;;4993568;28;20554;-62
2022/08/15 06:45:22;;;;;;;17.52;13.63;;;;;;;;;;4995682;28;20038;-62
2022/08/15 06:47:54;;;;;;;16.92;13.00;;;;;;;;;;5000385;28;20129;-62
2022/08/15 06:50:39;;;;;;;18.17;13.45;;;;;;;;;;5002200;28;20153;-62
2022/08/15 06:53:15;;;;;;;17.77;13.10;;;;;;;;;;4994381;28;20528;-62
2022/08/15 06:56:10;;;;;;;16.55;13.65;;;;;;;;;;4998604;28;20033;-62
2022/08/15 06:59:02;;;;;;;16.85;13.75;;;;;;;;;;4984771;28;20542;-62
2022/08/15 07:01:47;;;;;;;17.98;14.18;;;;;;;;;;4974609;28;20120;-62
2022/08/15 07:04:37;;;;;;;15.90;12.73;;;;;;;;;;4990196;28;20034;-62
2022/08/15 07:07:07;;;;;;;18.33;13.90;;;;;;;;;;4978715;28;20050;-62
2022/08/15 07:09:33;;;;;;;;;;;;;;;;;;4987265;28;20038;-62
2022/08/15 07:12:10;;;;;;;15.63;12.02;;;;;;;;;;4993953;28;19922;-62
2022/08/15 07:14:43;;;;;;;16.83;13.38;;;;;;;;;;4988037;28;20511;-62
2022/08/15 07:17:15;;;;;;;16.83;13.20;;;;;;;;;;4982611;28;20956;-62
2022/08/15 07:19:41;;;;;;;16.80;12.68;;;;;;;;;;4992426;28;20046;-62
2022/08/15 07:22:09;;;;;;;16.05;13.10;;;;;;;;;;4985184;28;20397;-62
2022/08/15 07:24:35;;;;;;;16.00;13.18;;;;;;;;;;4986911;28;20034;-62
2022/08/15 07:27:04;;;;;;;16.70;12.43;;;;;;;;;;4988279;28;20447;-62
2022/08/15 07:29:30;;;;;;;15.25;12.80;;;;;;;;;;4972668;28;20081;-62
2022/08/15 07:32:02;;;;;;;14.90;11.88;;;;;;;;;;4990113;28;20451;-62
2022/08/15 07:34:29;;;;;;;15.05;12.57;;;;;;;;;;4988428;28;20038;-62
2022/08/15 07:36:56;;;;;;;15.30;12.77;;;;;;;;;;4992393;28;20510;-62
2022/08/15 07:39:25;;;;;;;15.50;12.40;;;;;;;;;;4991311;28;20042;-63
2022/08/15 07:41:52;;;;;;;16.25;12.30;;;;;;;;;;4989417;28;20042;-62
2022/08/15 07:44:20;;;;;;;14.75;12.65;;;;;;;;;;4993130;28;20049;-62
2022/08/15 07:46:51;;;;;;;15.52;13.07;;;;;;;;;;4991978;28;20038;-62
2022/08/15 07:49:19;;;;;;;16.02;13.60;;;;;;;;;;4994461;28;20564;-63
2022/08/15 07:51:50;;;;;;;16.30;13.30;;;;;;;;;;4988943;28;20078;-62
2022/08/15 07:54:28;;;;;;;20.10;13.73;;;;;;;;;;4992025;28;20046;-62
2022/08/15 07:57:00;;;;;;;17.13;12.73;;;;;;;;;;4988779;28;20129;-62
2022/08/15 07:59:30;;;;;;;16.27;12.07;;;;;;;;;;4993800;28;20050;-62
2022/08/15 08:02:04;;;;;;;15.70;12.48;;;;;;;;;;5003115;28;20050;-62
2022/08/15 08:04:32;;;;;;;14.32;11.88;;;;;;;;;;4998212;28;20475;-63
2022/08/15 08:07:06;;;;;;;13.68;10.80;;;;;;;;;;4990176;28;20054;-62
2022/08/15 08:09:35;;;;;;;13.73;11.60;;;;;;;;;;4989171;28;20034;-62
2022/08/15 08:12:09;;;;;;;14.25;11.90;;;;;;;;;;4966552;28;20042;-62
2022/08/15 08:14:48;;;;;;;17.02;11.38;;;;;;;;;;4993921;28;20049;-62
2022/08/15 08:17:20;;;;;;;15.52;12.02;;;;;;;;;;4987477;28;20054;-62
2022/08/15 08:19:52;;;;;;;15.82;12.07;;;;;;;;;;4996210;28;20038;-62
2022/08/15 08:22:37;;;;;;;18.67;13.25;;;;;;;;;;4987607;28;20472;-62
2022/08/15 08:25:08;;;;;;;14.68;12.73;;;;;;;;;;4985634;28;20101;-62
2022/08/15 08:27:44;;;;;;;19.02;12.85;;;;;;;;;;4987996;28;20037;-62
2022/08/15 08:30:33;;;;;;;15.95;12.05;;;;;;;;;;4991184;28;20038;-62
2022/08/15 08:33:02;;;;;;;16.13;12.50;;;;;;;;;;4982572;28;20046;-62
2022/08/15 08:35:28;;;;;;;15.43;12.00;;;;;;;;;;4989425;28;20077;-63
2022/08/15 08:38:02;;;;;;;15.95;12.68;;;;;;;;;;4997912;28;20104;-63
2022/08/15 08:43:46;;;;;;;16.40;13.32;;;;;;;;;;4985797;28;20038;-62
2022/08/15 08:46:28;;;;;;;18.70;13.80;;;;;;;;;;4993239;28;20042;-63
2022/08/15 08:49:03;;;;;;;17.30;13.55;;;;;;;;;;4997967;28;20042;-62
2022/08/15 08:51:35;;;;;;;17.50;13.82;;;;;;;;;;4993153;28;20038;-62
2022/08/15 08:54:06;;;;;;;16.23;13.13;;;;;;;;;;4992927;28;20038;-62
2022/08/15 08:56:38;;;;;;;19.58;14.00;;;;;;;;;;4991950;28;20034;-62
2022/08/15 08:59:23;;;;;;;16.13;14.05;;;;;;;;;;4977277;28;20070;-62
2022/08/15 09:02:03;;;;;;;16.65;14.02;;;;;;;;;;4992384;28;20125;-62
2022/08/15 09:04:40;;;;;;;19.40;14.63;;;;;;;;;;4992738;28;20081;-62
2022/08/15 09:07:07;;;;;;;17.10;13.70;;;;;;;;;;4975718;28;20042;-62
2022/08/15 09:09:36;;;;;;;17.23;13.70;;;;;;;;;;4991500;28;20550;-62
2022/08/15 09:12:04;;;;;;;17.38;14.18;;;;;;;;;;4992407;28;20077;-62
2022/08/15 09:14:35;;;;;;;17.40;14.15;;;;;;;;;;4983020;28;20042;-62
2022/08/15 09:17:04;;;;;;;16.67;13.85;;;;;;;;;;4992686;28;20050;-62
2022/08/15 09:19:50;;;;;;;17.60;14.30;;;;;;;;;;4991440;28;20049;-62
2022/08/15 09:22:17;;;;;;;18.35;14.55;;;;;;;;;;4990176;28;20407;-63
2022/08/15 09:24:43;;;;;;;20.33;16.08;;;;;;;;;;4989942;28;20480;-63
2022/08/15 09:27:10;;;;;;;17.88;14.73;;;;;;;;;;4978982;28;20492;-62
2022/08/15 09:29:40;;;;;;;18.30;14.10;;;;;;;;;;4991870;28;20046;-63
2022/08/15 09:32:13;;;;;;;18.98;15.10;;;;;;;;;;5000800;28;20042;-63
2022/08/15 09:34:57;;;;;;;17.52;14.80;;;;;;;;;;4992547;28;20046;-63
2022/08/15 09:37:29;;;;;;;18.00;14.70;;;;;;;;;;4988139;28;20077;-63
2022/08/15 09:40:11;;;;;;;19.15;14.82;;;;;;;;;;4985628;28;20131;-62
2022/08/15 09:42:55;;;;;;;17.95;14.68;;;;;;;;;;4989854;28;20065;-63
2022/08/15 09:45:41;;;;;;;16.75;13.88;;;;;;;;;;4985828;28;20038;-63
2022/08/15 09:48:23;;;;;;;19.05;14.73;;;;;;;;;;4996007;28;20055;-63
2022/08/15 09:50:49;;;;;;;19.20;14.43;;;;;;;;;;5008644;23;20104;-65
2022/08/15 09:53:21;;;;;;;18.52;15.35;;;;;;;;;;5008656;28;20038;-65
2022/08/15 09:55:48;;;;;;;19.92;15.60;;;;;;;;;;5005363;28;20080;-65
2022/08/15 09:58:18;;;;;;;23.75;16.90;;;;;;;;;;5010835;28;20045;-65
2022/08/15 10:00:55;;;;;;;20.45;16.65;;;;;;;;;;5009756;28;20046;-65
2022/08/15 10:03:44;;;;;;;20.40;16.98;;;;;;;;;;4994054;28;20092;-65
2022/08/15 10:06:23;;;;;;;23.67;18.58;;;;;;;;;;5008470;28;20042;-65
2022/08/15 10:08:52;;;;;;;22.95;17.95;;;;;;;;;;5011224;28;20125;-65
2022/08/15 10:11:27;;;;;;;25.98;18.88;;;;;;;;;;5011238;28;20050;-65
2022/08/15 10:14:06;;;;;;;23.20;17.35;;;;;;;;;;5008411;28;20050;-65
2022/08/15 10:16:39;;;;;;;22.87;18.60;;;;;;;;;;5010052;28;20121;-65
2022/08/15 10:19:11;;;;;;;22.35;17.40;;;;;;;;;;5002035;28;20096;-65
2022/08/15 10:21:40;;;;;;;25.88;18.50;;;;;;;;;;5003236;28;20046;-65
2022/08/15 10:24:08;;;;;;;21.30;17.52;;;;;;;;;;5011665;28;20052;-65
2022/08/15 10:26:37;;;;;;;23.75;18.88;;;;;;;;;;5011517;28;20038;-65
2022/08/15 10:29:32;;;;;;;22.48;18.77;;;;;;;;;;5008124;28;20466;-65
2022/08/15 10:31:59;;;;;;;26.15;19.15;;;;;;;;;;4987005;28;20124;-65
2022/08/15 10:34:29;;;;;;;27.65;21.30;;;;;;;;;;5009175;28;20108;-65
2022/08/15 10:37:24;;;;;;;28.77;21.02;;;;;;;;;;5007811;28;20120;-65
2022/08/15 10:40:06;;;;;;;23.83;18.67;;;;;;;;;;4986852;28;20060;-65
2022/08/15 10:42:36;;;;;;;24.95;19.85;;;;;;;;;;4993114;28;20430;-64
2022/08/15 10:45:20;;;;;;;27.05;20.40;;;;;;;;;;5006295;28;20530;-65
2022/08/15 10:48:05;;;;;;;27.42;21.08;;;;;;;;;;5002409;28;20045;-65
2022/08/15 10:50:51;;;;;;;25.85;20.05;;;;;;;;;;5010244;28;20045;-64
2022/08/15 10:53:20;;;;;;;26.77;21.60;;;;;;;;;;5002372;28;20076;-65
2022/08/15 10:55:46;;;;;;;24.73;20.40;;;;;;;;;;5009453;28;20085;-65
2022/08/15 10:58:15;;;;;;;27.35;19.75;;;;;;;;;;5008577;28;20650;-64
2022/08/15 11:00:46;;;;;;;30.88;22.15;;;;;;;;;;5008323;28;20049;-65
2022/08/15 11:03:18;;;;;;;31.98;22.63;;;;;;;;;;5011554;28;20046;-65
2022/08/15 11:05:53;;;;;;;27.52;21.70;;;;;;;;;;5012217;28;20050;-65
2022/08/15 11:08:20;;;;;;;27.45;22.77;;;;;;;;;;5009530;28;20509;-65
2022/08/15 11:10:46;;;;;;;30.10;22.02;;;;;;;;;;5009556;28;20029;-65
2022/08/15 11:13:14;;;;;;;28.80;22.67;;;;;;;;;;5013785;28;20464;-65
2022/08/15 11:15:47;;;;;;;26.38;21.17;;;;;;;;;;5010146;28;20720;-65
2022/08/15 11:18:19;;;;;;;29.10;23.42;;;;;;;;;;5010110;28;20042;-66
2022/08/15 11:20:46;;;;;;;29.98;22.45;;;;;;;;;;5012798;28;20045;-66
2022/08/15 11:23:28;;;;;;;29.45;21.98;;;;;;;;;;5012523;28;20038;-66
2022/08/15 11:25:56;;;;;;;30.30;22.52;;;;;;;;;;5012527;28;20121;-66
2022/08/15 11:28:24;;;;;;;28.92;21.60;;;;;;;;;;5008763;28;20487;-66
2022/08/15 11:30:58;;;;;;;30.23;22.48;;;;;;;;;;5013963;28;20050;-66
2022/08/15 11:33:26;;;;;;;27.25;20.98;;;;;;;;;;5005736;28;20045;-66
2022/08/15 11:36:04;;;;;;;30.80;21.45;;;;;;;;;;5011408;28;20491;-66
2022/08/15 11:38:35;;;;;;;30.98;21.98;;;;;;;;;;5008177;28;20121;-66
2022/08/15 11:41:01;;;;;;;31.10;23.73;;;;;;;;;;5013675;28;20041;-66
2022/08/15 11:43:28;;;;;;;27.65;20.83;;;;;;;;;;5009299;28;20070;-66
2022/08/15 11:45:56;;;;;;;29.80;21.92;;;;;;;;;;5013959;28;20121;-66
2022/08/15 11:48:28;;;;;;;27.30;21.45;;;;;;;;;;5006576;28;20057;-66
2022/08/15 11:51:00;;;;;;;30.88;21.70;;;;;;;;;;5007279;28;20045;-66
2022/08/15 11:53:35;;;;;;;29.10;22.27;;;;;;;;;;5008572;28;20042;-65
2022/08/15 11:56:01;;;;;;;28.45;21.80;;;;;;;;;;5004079;28;20041;-65
2022/08/15 11:58:38;;;;;;;28.63;22.50;;;;;;;;;;5006070;28;20046;-65
2022/08/15 12:01:22;;;;;;;28.08;21.17;;;;;;;;;;5009913;28;20045;-65
2022/08/15 12:04:02;;;;;;;25.23;19.20;;;;;;;;;;5008034;28;20049;-65
2022/08/15 12:06:28;;;;;;;26.65;21.85;;;;;;;;;;5008263;28;20081;-66
2022/08/15 12:08:54;;;;;;;26.48;20.35;;;;;;;;;;5007704;28;20107;-65
2022/08/15 12:11:23;;;;;;;22.45;19.05;;;;;;;;;;5007815;28;20050;-65
2022/08/15 12:13:55;;;;;;;22.17;17.88;;;;;;;;;;5013942;28;20535;-65
2022/08/15 12:16:28;;;;;;;21.42;16.80;;;;;;;;;;5009404;28;20038;-65
2022/08/15 12:18:54;;;;;;;19.38;15.70;;;;;;;;;;5008714;28;20033;-66
2022/08/15 12:21:20;;;;;;;21.08;15.10;;;;;;;;;;5012369;28;20071;-65
2022/08/15 12:23:55;;;;;;;18.35;14.90;;;;;;;;;;5006046;28;20088;-65
2022/08/15 12:26:21;;;;;;;21.45;15.05;;;;;;;;;;5008134;28;20041;-65
2022/08/15 12:28:47;;;;;;;19.70;13.20;;;;;;;;;;5010768;28;20054;-66
2022/08/15 12:31:13;;;;;;;18.75;14.02;;;;;;;;;;5004358;28;20042;-66
2022/08/15 12:33:42;;;;;;;16.52;14.23;;;;;;;;;;5011119;28;20042;-66
2022/08/15 12:36:08;;;;;;;16.92;13.45;;;;;;;;;;5012896;28;20109;-65
2022/08/15 12:38:35;;;;;;;16.45;12.73;;;;;;;;;;5009233;28;20038;-66
2022/08/15 12:41:02;;;;;;;20.20;14.70;;;;;;;;;;5007565;28;20054;-66
2022/08/15 12:43:28;;;;;;;15.77;13.43;;;;;;;;;;5010744;28;20080;-66
2022/08/15 12:45:54;;;;;;;22.02;15.10;;;;;;;;;;5012846;28;20117;-65
2022/08/15 12:48:25;;;;;;;18.80;13.95;;;;;;;;;;5012214;28;20562;-66
2022/08/15 12:50:51;;;;;;;18.05;13.90;;;;;;;;;;5012101;28;20562;-66
2022/08/15 12:53:17;;;;;;;17.20;13.82;;;;;;;;;;5010779;28;20125;-66
2022/08/15 12:55:44;;;;;;;16.83;14.10;;;;;;;;;;5012328;28;20126;-66
2022/08/15 12:58:11;;;;;;;16.70;14.00;;;;;;;;;;5007809;28;20050;-66
2022/08/15 13:00:37;;;;;;;16.08;14.07;;;;;;;;;;5002978;28;20503;-66
2022/08/15 13:03:08;;;;;;;17.27;14.45;;;;;;;;;;5008247;28;20052;-66
2022/08/15 13:05:35;;;;;;;18.30;14.50;;;;;;;;;;5002586;28;20042;-66
2022/08/15 13:08:01;;;;;;;15.63;13.75;;;;;;;;;;5004276;28;20123;-66
2022/08/15 13:10:27;;;;;;;14.65;12.20;;;;;;;;;;5009697;28;20050;-66
2022/08/15 13:12:53;;;;;;;16.33;12.32;;;;;;;;;;5010577;28;20045;-66
2022/08/15 13:15:21;;;;;;;15.55;12.15;;;;;;;;;;5012056;28;20037;-66
2022/08/15 13:17:47;;;;;;;11.93;10.65;;;;;;;;;;5012633;28;20115;-66
2022/08/15 13:25:43;;;;;;;12.95;10.00;;;;;;;;;;5003757;28;20476;-66
2022/08/15 13:28:09;;;;;;;11.75;10.50;;;;;;;;;;5009041;28;20038;-66
2022/08/15 13:30:36;;;;;;;12.18;10.55;;;;;;;;;;5011399;28;20049;-66
2022/08/15 13:33:02;;;;;;;11.60;10.00;;;;;;;;;;5011134;28;20050;-66
2022/08/15 13:35:28;;;;;;;11.18;9.27;;;;;;;;;;5010095;28;20446;-66
2022/08/15 13:37:54;;;;;;;11.88;9.20;;;;;;;;;;5010457;28;20049;-66
2022/08/15 13:40:23;;;;;;;11.90;10.20;;;;;;;;;;5005535;28;20496;-66
2022/08/15 13:42:49;;;;;;;10.50;9.30;;;;;;;;;;5006117;28;20038;-66
2022/08/15 13:45:16;;;;;;;11.48;9.63;;;;;;;;;;5011071;28;20125;-66
2022/08/15 13:47:42;;;;;;;12.00;9.82;;;;;;;;;;5009574;28;20687;-66
2022/08/15 13:50:09;;;;;;;13.93;10.85;;;;;;;;;;5009972;28;20391;-66
2022/08/15 13:52:37;;;;;;;11.43;10.02;;;;;;;;;;5008830;28;20139;-66
2022/08/15 13:55:03;;;;;;;10.05;8.45;;;;;;;;;;5007363;28;20046;-66
2022/08/15 13:57:29;;;;;;;10.13;7.65;;;;;;;;;;5003228;28;20150;-65
2022/08/15 13:59:55;;;;;;;10.40;8.90;;;;;;;;;;5009751;28;20232;-66
2022/08/15 14:02:21;;;;;;;9.40;8.23;;;;;;;;;;5009651;28;20045;-65
2022/08/15 14:04:47;;;;;;;9.60;7.70;;;;;;;;;;5010223;28;20042;-66
2022/08/15 14:07:15;;;;;;;9.85;8.02;;;;;;;;;;5011353;28;20047;-66
2022/08/15 14:09:41;;;;;;;14.25;7.72;;;;;;;;;;5008634;28;20060;-66
2022/08/15 14:12:08;;;;;;;9.38;8.38;;;;;;;;;;5009067;28;20046;-66
2022/08/15 14:14:35;;;;;;;8.93;7.55;;;;;;;;;;5008475;28;20042;-66
2022/08/15 14:17:01;;;;;;;9.80;7.35;;;;;;;;;;5011070;28;20105;-66
2022/08/15 14:19:29;;;;;;;7.85;6.95;;;;;;;;;;5010151;28;20038;-66
2022/08/15 14:21:56;;;;;;;7.65;6.53;;;;;;;;;;5010665;28;20049;-66
2022/08/15 14:24:22;;;;;;;9.73;6.53;;;;;;;;;;5007420;28;20523;-66
2022/08/15 14:26:50;;;;;;;6.78;6.07;;;;;;;;;;5010488;28;20044;-66
2022/08/15 14:29:22;;;;;;;7.10;6.00;;;;;;;;;;5010118;28;20539;-66
2022/08/15 14:31:49;;;;;;;6.45;5.18;;;;;;;;;;5010891;28;20459;-66
2022/08/15 14:34:15;;;;;;;7.25;4.82;;;;;;;;;;5007999;28;20050;-66
2022/08/15 14:36:42;;;;;;;5.53;4.30;;;;;;;;;;5013528;28;20046;-66
2022/08/15 14:39:09;;;;;;;4.55;4.03;;;;;;;;;;5007324;28;20559;-66
2022/08/15 14:41:35;;;;;;;4.97;4.20;;;;;;;;;;5014936;28;20407;-66
2022/08/15 14:44:01;;;;;;;6.22;4.30;;;;;;;;;;5012834;28;20048;-66
2022/08/15 14:46:28;;;;;;;6.38;4.32;;;;;;;;;;5015146;28;20042;-66
2022/08/15 14:48:55;;;;;;;5.90;4.32;;;;;;;;;;5011643;28;20099;-66
2022/08/15 14:51:25;;;;;;;6.55;4.38;;;;;;;;;;5012404;28;20046;-66